createdAt,value
2022-11-05T00:00:17.652Z,67.49
2022-11-05T00:03:03.338Z,67.40
2022-11-05T00:05:49.203Z,67.55
2022-11-05T00:08:34.944Z,67.32
2022-11-05T00:11:02.446Z,67.22
2022-11-05T00:13:47.959Z,67.20
2022-11-05T00:16:33.638Z,67.31
2022-11-05T00:19:06.890Z,67.21
2022-11-05T00:21:53.876Z,67.51
2022-11-05T00:24:39.595Z,67.18
2022-11-05T00:27:07.037Z,67.07
2022-11-05T00:29:34.187Z,67.38
2022-11-05T00:32:01.629Z,67.40
2022-11-05T00:34:28.583Z,67.22
2022-11-05T00:36:56.407Z,67.50
2022-11-05T00:39:23.529Z,67.23
2022-11-05T00:42:10.483Z,67.08
2022-11-05T00:44:56.023Z,67.42
2022-11-05T00:47:41.501Z,67.10
2022-11-05T00:50:11.021Z,67.27
2022-11-05T00:52:57.660Z,67.03
2022-11-05T00:55:35.533Z,66.99
2022-11-05T00:58:05.778Z,67.33
2022-11-05T01:00:34.580Z,67.40
2022-11-05T01:03:06.775Z,67.51
2022-11-05T01:05:34.706Z,67.48
2022-11-05T01:08:02.143Z,67.51
2022-11-05T01:10:29.632Z,67.97
2022-11-05T01:12:56.686Z,67.77
2022-11-05T01:15:23.817Z,68.23
2022-11-05T01:17:52.265Z,67.93
2022-11-05T01:20:19.205Z,67.45
2022-11-05T01:22:46.209Z,67.59
2022-11-05T01:25:13.382Z,67.92
2022-11-05T01:27:40.562Z,67.71
2022-11-05T01:30:09.020Z,67.93
2022-11-05T01:32:37.740Z,67.76
2022-11-05T01:35:06.701Z,67.88
2022-11-05T01:37:34.807Z,67.89
2022-11-05T01:40:01.800Z,67.90
2022-11-05T01:42:29.272Z,67.85
2022-11-05T01:45:01.241Z,67.62
2022-11-05T01:47:36.737Z,67.25
2022-11-05T01:50:16.211Z,67.42
2022-11-05T01:52:43.220Z,67.09
2022-11-05T01:55:10.716Z,67.37
2022-11-05T01:57:38.207Z,67.58
2022-11-05T02:00:05.877Z,66.93
2022-11-05T02:02:32.749Z,67.55
2022-11-05T02:05:04.031Z,67.61
2022-11-05T02:07:31.653Z,68.01
2022-11-05T02:10:07.109Z,67.81
2022-11-05T02:12:36.713Z,67.88
2022-11-05T02:15:03.868Z,68.08
2022-11-05T02:17:44.891Z,67.89
2022-11-05T02:21:00.051Z,68.23
2022-11-05T02:23:54.198Z,68.29
2022-11-05T02:27:02.786Z,68.37
2022-11-05T02:29:47.939Z,69.20
2022-11-05T02:32:18.954Z,69.10
2022-11-05T02:35:04.432Z,69.28
2022-11-05T02:37:40.560Z,68.71
2022-11-05T02:40:36.902Z,68.64
2022-11-05T02:43:47.484Z,69.28
2022-11-05T02:46:27.093Z,68.84
2022-11-05T02:49:15.744Z,68.91
2022-11-05T02:51:59.558Z,69.02
2022-11-05T02:54:42.200Z,68.78
2022-11-05T02:57:09.256Z,69.04
2022-11-05T02:59:39.080Z,69.48
2022-11-05T03:02:06.896Z,68.93
2022-11-05T03:04:34.070Z,69.34
2022-11-05T03:07:19.832Z,69.42
2022-11-05T03:09:55.859Z,69.36
2022-11-05T03:12:49.315Z,68.92
2022-11-05T03:15:19.270Z,69.42
2022-11-05T03:18:11.624Z,69.50
2022-11-05T03:20:52.169Z,68.85
2022-11-05T03:23:28.464Z,69.07
2022-11-05T03:26:29.000Z,69.05
2022-11-05T03:29:07.446Z,68.91
2022-11-05T03:31:37.350Z,68.91
2022-11-05T03:34:07.322Z,68.91
2022-11-05T03:36:49.165Z,68.77
2022-11-05T03:39:26.903Z,68.85
2022-11-05T03:41:54.331Z,68.95
2022-11-05T03:44:26.544Z,69.08
2022-11-05T03:46:58.205Z,69.55
2022-11-05T03:49:34.752Z,69.51
2022-11-05T03:52:11.436Z,68.98
2022-11-05T03:54:38.650Z,69.20
2022-11-05T03:57:15.682Z,69.51
2022-11-05T03:59:45.801Z,69.60
2022-11-05T04:02:15.196Z,69.52
2022-11-05T04:04:43.835Z,69.72
2022-11-05T04:07:30.288Z,69.58
2022-11-05T04:10:15.919Z,69.81
2022-11-05T04:13:01.567Z,69.66
2022-11-05T04:15:49.397Z,69.64
2022-11-05T04:18:16.366Z,69.62
2022-11-05T04:21:02.229Z,69.34
2022-11-05T04:23:47.999Z,69.77
2022-11-05T04:26:14.986Z,69.70
2022-11-05T04:29:03.840Z,69.79
2022-11-05T04:31:34.720Z,69.90
2022-11-05T04:34:01.886Z,70.17
2022-11-05T04:36:29.246Z,70.29
2022-11-05T04:38:56.666Z,70.84
2022-11-05T04:41:23.783Z,70.74
2022-11-05T04:43:50.751Z,70.74
2022-11-05T04:46:17.893Z,70.95
2022-11-05T04:48:45.060Z,70.22
2022-11-05T04:51:11.981Z,70.86
2022-11-05T04:53:38.939Z,70.95
2022-11-05T04:56:15.526Z,70.77
2022-11-05T04:58:43.200Z,70.90
2022-11-05T05:01:18.139Z,71.46
2022-11-05T05:03:48.742Z,71.71
2022-11-05T05:06:16.188Z,71.18
2022-11-05T05:08:43.184Z,71.14
2022-11-05T05:11:14.546Z,71.04
2022-11-05T05:13:41.431Z,71.43
2022-11-05T05:16:10.508Z,70.74
2022-11-05T05:18:40.912Z,71.61
2022-11-05T05:21:29.002Z,71.51
2022-11-05T05:23:55.959Z,71.30
2022-11-05T05:26:22.907Z,71.50
2022-11-05T05:28:49.847Z,71.54
2022-11-05T05:31:16.681Z,71.57
2022-11-05T05:33:43.746Z,70.89
2022-11-05T05:36:11.603Z,70.95
2022-11-05T05:38:38.866Z,71.67
2022-11-05T05:41:06.055Z,71.14
2022-11-05T05:43:34.109Z,71.41
2022-11-05T05:46:11.044Z,71.38
2022-11-05T05:48:38.317Z,71.95
2022-11-05T05:51:07.864Z,71.86
2022-11-05T05:53:35.223Z,72.38
2022-11-05T05:56:02.456Z,72.60
2022-11-05T05:58:35.339Z,71.92
2022-11-05T06:01:21.040Z,71.44
2022-11-05T06:03:49.188Z,71.39
2022-11-05T06:06:20.090Z,71.83
2022-11-05T06:08:47.788Z,71.42
2022-11-05T06:11:14.761Z,71.04
2022-11-05T06:13:41.677Z,70.61
2022-11-05T06:16:09.986Z,71.02
2022-11-05T06:18:38.223Z,71.05
2022-11-05T06:21:13.578Z,71.10
2022-11-05T06:23:42.777Z,71.41
2022-11-05T06:26:13.386Z,71.09
2022-11-05T06:28:42.327Z,70.78
2022-11-05T06:31:10.990Z,70.62
2022-11-05T06:33:38.910Z,70.82
2022-11-05T06:36:07.445Z,70.71
2022-11-05T06:38:36.858Z,70.67
2022-11-05T06:41:10.096Z,71.12
2022-11-05T06:43:37.940Z,70.76
2022-11-05T06:46:05.841Z,70.89
2022-11-05T06:48:33.376Z,70.92
2022-11-05T06:51:00.364Z,70.73
2022-11-05T06:53:27.360Z,70.65
2022-11-05T06:55:54.366Z,70.58
2022-11-05T06:58:21.732Z,70.64
2022-11-05T07:00:49.283Z,70.85
2022-11-05T07:03:16.528Z,70.63
2022-11-05T07:05:49.882Z,70.13
2022-11-05T07:08:17.362Z,70.34
2022-11-05T07:10:44.357Z,70.62
2022-11-05T07:13:11.812Z,70.25
2022-11-05T07:15:39.096Z,70.07
2022-11-05T07:18:09.752Z,70.09
2022-11-05T07:20:36.950Z,70.18
2022-11-05T07:23:06.665Z,69.79
2022-11-05T07:25:35.001Z,69.96
2022-11-05T07:28:02.579Z,70.08
2022-11-05T07:30:31.387Z,69.96
2022-11-05T07:32:58.326Z,70.00
2022-11-05T07:35:25.621Z,69.76
2022-11-05T07:37:56.807Z,69.87
2022-11-05T07:40:26.410Z,70.13
2022-11-05T07:42:55.622Z,70.19
2022-11-05T07:45:25.020Z,70.13
2022-11-05T07:47:57.656Z,69.69
2022-11-05T07:50:27.138Z,69.17
2022-11-05T07:52:54.454Z,69.34
2022-11-05T07:55:21.622Z,69.59
2022-11-05T07:57:50.839Z,68.92
2022-11-05T08:00:20.592Z,69.26
2022-11-05T08:03:02.319Z,69.04
2022-11-05T08:05:37.045Z,69.13
2022-11-05T08:08:04.724Z,69.44
2022-11-05T08:10:31.969Z,68.68
2022-11-05T08:12:58.903Z,68.98
2022-11-05T08:15:25.880Z,69.13
2022-11-05T08:18:05.142Z,69.22
2022-11-05T08:20:32.906Z,69.22
2022-11-05T08:23:00.421Z,69.13
2022-11-05T08:25:28.198Z,69.47
2022-11-05T08:28:00.092Z,69.86
2022-11-05T08:30:28.121Z,69.20
2022-11-05T08:33:00.353Z,69.65
2022-11-05T08:35:28.501Z,70.23
2022-11-05T08:38:03.281Z,69.77
2022-11-05T08:40:32.086Z,69.92
2022-11-05T08:43:00.861Z,69.70
2022-11-05T08:45:28.433Z,69.66
2022-11-05T08:48:06.355Z,70.13
2022-11-05T08:50:34.489Z,69.80
2022-11-05T08:53:01.494Z,70.16
2022-11-05T08:55:28.517Z,70.13
2022-11-05T08:58:04.397Z,70.29
2022-11-05T09:00:34.169Z,69.94
2022-11-05T09:03:02.804Z,69.37
2022-11-05T09:05:31.662Z,69.50
2022-11-05T09:08:01.388Z,69.41
2022-11-05T09:10:29.344Z,69.57
2022-11-05T09:12:56.494Z,69.35
2022-11-05T09:15:24.770Z,69.34
2022-11-05T09:17:51.841Z,69.12
2022-11-05T09:20:19.787Z,69.60
2022-11-05T09:22:47.354Z,69.91
2022-11-05T09:25:16.165Z,70.31
2022-11-05T09:27:43.854Z,69.94
2022-11-05T09:30:12.467Z,70.23
2022-11-05T09:32:39.665Z,70.20
2022-11-05T09:35:08.006Z,70.19
2022-11-05T09:37:36.138Z,70.17
2022-11-05T09:40:03.990Z,70.06
2022-11-05T09:42:43.355Z,70.48
2022-11-05T09:45:19.562Z,70.60
2022-11-05T09:47:51.348Z,70.19
2022-11-05T09:50:24.964Z,70.34
2022-11-05T09:52:51.962Z,70.59
2022-11-05T09:55:30.990Z,70.44
2022-11-05T09:58:01.192Z,71.06
2022-11-05T10:00:30.614Z,70.36
2022-11-05T10:03:05.508Z,70.69
2022-11-05T10:05:34.450Z,70.74
2022-11-05T10:08:07.699Z,70.76
2022-11-05T10:10:43.263Z,70.98
2022-11-05T10:13:27.023Z,70.89
2022-11-05T10:16:15.225Z,70.71
2022-11-05T10:18:47.578Z,70.86
2022-11-05T10:21:37.631Z,70.86
2022-11-05T10:24:14.404Z,71.29
2022-11-05T10:26:41.529Z,70.90
2022-11-05T10:29:13.959Z,70.77
2022-11-05T10:31:41.055Z,70.93
2022-11-05T10:34:09.209Z,72.18
2022-11-05T10:36:38.448Z,71.94
2022-11-05T10:39:15.317Z,71.57
2022-11-05T10:42:21.184Z,71.92
2022-11-05T10:45:06.345Z,71.63
2022-11-05T10:48:04.536Z,72.41
2022-11-05T10:50:32.079Z,72.49
2022-11-05T10:53:03.108Z,72.21
2022-11-05T10:55:41.003Z,72.29
2022-11-05T10:58:13.994Z,73.56
2022-11-05T11:00:41.515Z,73.15
2022-11-05T11:03:31.134Z,74.09
2022-11-05T11:06:01.367Z,73.68
2022-11-05T11:08:28.985Z,72.52
2022-11-05T11:11:02.574Z,72.96
2022-11-05T11:13:49.836Z,73.38
2022-11-05T11:16:22.252Z,73.11
2022-11-05T11:19:03.455Z,73.04
2022-11-05T11:21:32.420Z,73.66
2022-11-05T11:24:05.267Z,73.11
2022-11-05T11:26:36.489Z,73.58
2022-11-05T11:29:29.207Z,73.69
2022-11-05T11:31:59.948Z,73.53
2022-11-05T11:34:34.424Z,74.80
2022-11-05T11:37:19.408Z,73.80
2022-11-05T11:39:51.395Z,74.37
2022-11-05T11:42:24.173Z,74.63
2022-11-05T11:44:52.021Z,74.36
2022-11-05T11:47:21.534Z,75.19
2022-11-05T11:49:56.855Z,75.31
2022-11-05T11:52:35.305Z,75.76
2022-11-05T11:55:19.256Z,75.33
2022-11-05T11:57:49.896Z,75.10
2022-11-05T12:00:18.590Z,75.03
2022-11-05T12:02:51.167Z,75.58
2022-11-05T12:05:29.963Z,75.65
2022-11-05T12:08:05.965Z,75.79
2022-11-05T12:10:41.688Z,76.14
2022-11-05T12:13:21.143Z,75.99
2022-11-05T12:15:53.698Z,76.61
2022-11-05T12:18:35.504Z,77.14
2022-11-05T12:21:34.821Z,77.08
2022-11-05T12:24:35.103Z,77.65
2022-11-05T12:27:22.268Z,77.05
2022-11-05T12:29:51.942Z,78.01
2022-11-05T12:32:43.242Z,78.02
2022-11-05T12:35:24.183Z,77.22
2022-11-05T12:37:51.052Z,77.66
2022-11-05T12:41:05.666Z,78.19
2022-11-05T12:43:41.824Z,77.93
2022-11-05T12:46:29.942Z,78.60
2022-11-05T12:49:02.621Z,78.64
2022-11-05T12:52:00.153Z,78.66
2022-11-05T12:54:45.654Z,79.98
2022-11-05T12:57:15.407Z,79.17
2022-11-05T12:59:58.718Z,79.51
2022-11-05T13:02:51.011Z,78.83
2022-11-05T13:05:39.412Z,78.86
2022-11-05T13:08:22.046Z,78.72
2022-11-05T13:10:58.601Z,79.75
2022-11-05T13:13:38.845Z,79.86
2022-11-05T13:16:10.822Z,80.17
2022-11-05T13:18:48.629Z,80.37
2022-11-05T13:21:18.084Z,81.20
2022-11-05T13:23:52.148Z,80.40
2022-11-05T13:26:37.923Z,79.20
2022-11-05T13:29:31.801Z,79.36
2022-11-05T13:32:08.872Z,79.15
2022-11-05T13:34:37.736Z,78.70
2022-11-05T13:37:25.957Z,78.38
2022-11-05T13:39:57.782Z,78.08
2022-11-05T13:42:50.001Z,78.50
2022-11-05T13:45:41.754Z,78.31
2022-11-05T13:48:27.539Z,78.71
2022-11-05T13:50:57.473Z,78.87
2022-11-05T13:53:36.518Z,79.62
2022-11-05T13:56:03.527Z,79.24
2022-11-05T13:58:57.296Z,79.45
2022-11-05T14:01:33.496Z,79.49
2022-11-05T14:04:00.939Z,79.39
2022-11-05T14:06:32.049Z,79.21
2022-11-05T14:09:11.399Z,78.92
2022-11-05T14:11:43.086Z,79.00
2022-11-05T14:14:22.148Z,78.81
2022-11-05T14:17:09.381Z,78.02
2022-11-05T14:20:07.061Z,78.94
2022-11-05T14:22:33.922Z,78.74
2022-11-05T14:25:21.946Z,78.77
2022-11-05T14:27:52.056Z,78.55
2022-11-05T14:30:46.561Z,79.64
2022-11-05T14:33:31.848Z,79.54
2022-11-05T14:36:20.823Z,79.07
2022-11-05T14:39:13.358Z,79.19
2022-11-05T14:41:55.898Z,78.88
2022-11-05T14:44:24.639Z,79.27
2022-11-05T14:46:55.214Z,79.43
2022-11-05T14:49:51.352Z,79.69
2022-11-05T14:52:20.311Z,79.45
2022-11-05T14:54:56.630Z,79.55
2022-11-05T14:57:44.571Z,79.77
2022-11-05T15:00:29.536Z,79.85
2022-11-05T15:02:59.376Z,79.72
2022-11-05T15:05:33.648Z,78.97
2022-11-05T15:08:20.649Z,78.89
2022-11-05T15:10:49.435Z,79.12
2022-11-05T15:13:33.276Z,78.97
2022-11-05T15:16:00.309Z,79.02
2022-11-05T15:18:39.210Z,79.11
2022-11-05T15:21:11.114Z,78.90
2022-11-05T15:23:47.791Z,78.92
2022-11-05T15:26:32.540Z,79.44
2022-11-05T15:29:01.355Z,79.13
2022-11-05T15:31:37.558Z,79.15
2022-11-05T15:34:18.229Z,79.54
2022-11-05T15:36:53.895Z,79.66
2022-11-05T15:39:41.119Z,79.93
2022-11-05T15:42:28.383Z,79.46
2022-11-05T15:45:00.572Z,79.67
2022-11-05T15:47:34.517Z,79.82
2022-11-05T15:50:08.656Z,79.04
2022-11-05T15:52:42.673Z,79.54
2022-11-05T15:55:12.553Z,79.92
2022-11-05T15:57:59.739Z,80.25
2022-11-05T16:00:29.208Z,80.16
2022-11-05T16:02:57.732Z,79.83
2022-11-05T16:05:28.378Z,79.61
2022-11-05T16:07:59.337Z,79.83
2022-11-05T16:10:35.097Z,79.58
2022-11-05T16:13:21.686Z,79.72
2022-11-05T16:15:56.989Z,80.19
2022-11-05T16:18:30.100Z,80.08
2022-11-05T16:21:05.852Z,80.02
2022-11-05T16:23:43.472Z,79.85
2022-11-05T16:29:35.982Z,79.89
2022-11-05T16:32:31.357Z,80.13
2022-11-05T16:35:04.698Z,79.82
2022-11-05T16:37:38.646Z,79.91
2022-11-05T16:40:19.769Z,79.96
2022-11-05T16:42:51.843Z,79.95
2022-11-05T16:45:21.567Z,80.24
2022-11-05T16:47:48.664Z,79.86
2022-11-05T16:50:33.772Z,80.06
2022-11-05T16:53:00.782Z,79.74
2022-11-05T16:55:27.867Z,79.65
2022-11-05T16:57:56.306Z,79.51
2022-11-05T17:00:24.476Z,79.76
2022-11-05T17:02:51.783Z,79.76
2022-11-05T17:05:21.118Z,80.46
2022-11-05T17:07:48.279Z,80.43
2022-11-05T17:10:15.443Z,80.41
2022-11-05T17:12:43.228Z,80.28
2022-11-05T17:15:26.006Z,80.45
2022-11-05T17:17:54.854Z,80.51
2022-11-05T17:20:39.472Z,80.37
2022-11-05T17:23:08.663Z,80.39
2022-11-05T17:25:36.092Z,80.74
2022-11-05T17:28:03.354Z,80.75
2022-11-05T17:30:30.344Z,80.59
2022-11-05T17:32:57.479Z,80.78
2022-11-05T17:35:24.549Z,80.74
2022-11-05T17:37:51.516Z,80.86
2022-11-05T17:40:22.649Z,80.78
2022-11-05T17:42:50.801Z,80.70
2022-11-05T17:45:18.576Z,81.07
2022-11-05T17:47:45.954Z,80.45
2022-11-05T17:50:15.070Z,81.15
2022-11-05T17:52:43.019Z,81.03
2022-11-05T17:55:16.920Z,80.99
2022-11-05T17:57:48.697Z,80.57
2022-11-05T18:00:23.788Z,81.04
2022-11-05T18:02:53.474Z,80.74
2022-11-05T18:05:22.142Z,80.99
2022-11-05T18:07:50.212Z,81.25
2022-11-05T18:10:17.633Z,80.66
2022-11-05T18:12:44.737Z,80.79
2022-11-05T18:15:12.740Z,80.76
2022-11-05T18:17:39.808Z,80.97
2022-11-05T18:20:14.224Z,81.18
2022-11-05T18:22:44.929Z,81.24
2022-11-05T18:25:13.878Z,81.14
2022-11-05T18:27:41.318Z,81.19
2022-11-05T18:30:09.480Z,81.44
2022-11-05T18:32:36.960Z,81.53
2022-11-05T18:35:04.152Z,80.96
2022-11-05T18:37:31.000Z,81.44
2022-11-05T18:39:57.982Z,81.61
2022-11-05T18:42:25.683Z,81.79
2022-11-05T18:44:52.777Z,81.78
2022-11-05T18:47:19.750Z,82.51
2022-11-05T18:49:46.735Z,82.61
2022-11-05T18:52:13.964Z,83.28
2022-11-05T18:54:40.983Z,83.24
2022-11-05T18:57:08.028Z,83.20
2022-11-05T18:59:38.550Z,83.00
2022-11-05T19:02:07.892Z,83.94
2022-11-05T19:04:37.994Z,83.19
2022-11-05T19:07:06.256Z,83.84
2022-11-05T19:09:34.952Z,83.80
2022-11-05T19:12:02.670Z,83.38
2022-11-05T19:14:30.461Z,83.99
2022-11-05T19:16:58.369Z,83.89
2022-11-05T19:19:25.845Z,84.16
2022-11-05T19:21:52.833Z,84.62
2022-11-05T19:24:19.776Z,84.63
2022-11-05T19:26:47.752Z,84.44
2022-11-05T19:29:15.560Z,84.86
2022-11-05T19:31:42.570Z,84.43
2022-11-05T19:34:09.680Z,85.00
2022-11-05T19:36:36.596Z,84.76
2022-11-05T19:39:09.279Z,85.17
2022-11-05T19:41:36.636Z,85.44
2022-11-05T19:44:03.711Z,85.05
2022-11-05T19:46:31.825Z,85.38
2022-11-05T19:49:00.958Z,84.82
2022-11-05T19:51:29.940Z,85.36
2022-11-05T19:53:56.952Z,84.96
2022-11-05T19:56:32.108Z,85.47
2022-11-05T19:59:00.299Z,85.24
2022-11-05T20:01:28.880Z,85.54
2022-11-05T20:03:57.438Z,85.42
2022-11-05T20:06:29.001Z,85.55
2022-11-05T20:11:49.733Z,85.11
2022-11-05T20:14:17.636Z,85.17
2022-11-05T20:16:46.389Z,85.02
2022-11-05T20:19:17.335Z,85.11
2022-11-05T20:21:44.789Z,84.15
2022-11-05T20:24:17.494Z,85.25
2022-11-05T20:26:49.268Z,84.58
2022-11-05T20:29:16.427Z,84.43
2022-11-05T20:31:43.405Z,85.13
2022-11-05T20:34:10.870Z,84.44
2022-11-05T20:36:39.841Z,84.53
2022-11-05T20:39:06.807Z,83.75
2022-11-05T20:41:33.804Z,84.57
2022-11-05T20:44:00.758Z,84.54
2022-11-05T20:46:28.195Z,84.47
2022-11-05T20:48:55.300Z,84.37
2022-11-05T20:51:24.745Z,84.56
2022-11-05T20:53:56.672Z,84.55
2022-11-05T20:56:26.480Z,84.55
2022-11-05T20:58:54.180Z,84.96
2022-11-05T21:01:21.449Z,85.05
2022-11-05T21:03:48.710Z,84.84
2022-11-05T21:06:16.206Z,85.03
2022-11-05T21:08:44.199Z,84.94
2022-11-05T21:11:11.166Z,84.70
2022-11-05T21:13:38.676Z,85.06
2022-11-05T21:16:08.256Z,84.99
2022-11-05T21:18:38.126Z,84.42
2022-11-05T21:21:10.012Z,84.26
2022-11-05T21:23:36.992Z,84.93
2022-11-05T21:26:08.774Z,84.77
2022-11-05T21:28:38.577Z,85.13
2022-11-05T21:31:07.027Z,84.37
2022-11-05T21:33:34.440Z,84.59
2022-11-05T21:36:07.360Z,84.87
2022-11-05T21:38:34.341Z,84.44
2022-11-05T21:41:03.278Z,84.60
2022-11-05T21:43:30.209Z,84.39
2022-11-05T21:46:01.353Z,84.79
2022-11-05T21:48:28.617Z,84.74
2022-11-05T21:51:13.952Z,84.54
2022-11-05T21:53:59.595Z,84.73
2022-11-05T21:56:45.643Z,84.73
2022-11-05T21:59:33.306Z,84.50
2022-11-05T22:02:03.541Z,84.42
2022-11-05T22:04:34.484Z,84.37
2022-11-05T22:07:01.887Z,83.50
2022-11-05T22:09:29.443Z,85.02
2022-11-05T22:11:56.384Z,84.25
2022-11-05T22:14:24.624Z,83.71
2022-11-05T22:16:51.674Z,83.56
2022-11-05T22:19:19.591Z,84.16
2022-11-05T22:21:47.459Z,83.93
2022-11-05T22:24:14.419Z,84.05
2022-11-05T22:26:43.612Z,84.06
2022-11-05T22:29:10.819Z,84.06
2022-11-05T22:31:38.014Z,83.96
2022-11-05T22:34:06.955Z,83.45
2022-11-05T22:36:34.871Z,83.84
2022-11-05T22:39:02.378Z,84.05
2022-11-05T22:41:30.286Z,83.97
2022-11-05T22:43:58.262Z,83.64
2022-11-05T22:46:27.200Z,83.54
2022-11-05T22:48:54.690Z,83.80
2022-11-05T22:51:25.028Z,83.83
2022-11-05T22:53:52.145Z,83.75
2022-11-05T22:56:22.154Z,84.01
2022-11-05T22:58:49.638Z,83.78
2022-11-05T23:01:17.883Z,82.69
2022-11-05T23:03:46.682Z,83.82
2022-11-05T23:06:33.967Z,83.68
2022-11-05T23:09:29.567Z,83.60
2022-11-05T23:11:57.761Z,83.90
2022-11-05T23:14:25.160Z,83.68
2022-11-05T23:17:10.588Z,83.80
2022-11-05T23:19:56.270Z,84.02
2022-11-05T23:22:44.810Z,83.91
2022-11-05T23:25:14.549Z,83.59
2022-11-05T23:27:42.029Z,83.98
2022-11-05T23:30:15.497Z,84.11
2022-11-05T23:32:42.572Z,84.39
2022-11-05T23:35:10.162Z,84.48
2022-11-05T23:37:55.501Z,84.07
2022-11-05T23:40:25.873Z,84.22
2022-11-05T23:43:12.132Z,83.69
2022-11-05T23:46:00.008Z,84.58
2022-11-05T23:48:29.561Z,84.20
2022-11-05T23:50:56.482Z,83.87
2022-11-05T23:53:24.227Z,83.67
2022-11-05T23:55:51.221Z,83.49
2022-11-05T23:58:19.356Z,83.36
